createdAt,value
2019-01-10T00:08:37.658Z,6.07
2019-01-10T00:12:42.203Z,6.37
2019-01-10T00:16:46.719Z,5.22
2019-01-10T00:20:51.235Z,6.80
2019-01-10T00:24:55.748Z,4.28
2019-01-10T00:29:00.306Z,7.37
2019-01-10T00:33:04.906Z,4.90
2019-01-10T00:37:09.398Z,3.77
2019-01-10T00:41:13.931Z,6.45
2019-01-10T00:45:18.491Z,4.58
2019-01-10T00:49:23.024Z,4.45
2019-01-10T00:53:27.516Z,7.10
2019-01-10T00:57:32.053Z,7.53
2019-01-10T01:01:36.578Z,5.53
2019-01-10T01:05:41.107Z,7.28
2019-01-10T01:09:45.644Z,4.45
2019-01-10T01:13:50.166Z,4.85
2019-01-10T01:17:54.693Z,4.58
2019-01-10T01:21:59.209Z,6.93
2019-01-10T01:26:03.742Z,8.48
2019-01-10T01:30:11.876Z,5.83
2019-01-10T01:34:16.394Z,4.97
2019-01-10T01:38:20.927Z,5.95
2019-01-10T01:42:25.434Z,3.58
2019-01-10T01:46:29.968Z,6.43
2019-01-10T01:55:50.640Z,4.95
2019-01-10T04:04:17.012Z,7.43
2019-01-10T04:21:17.596Z,6.33
2019-01-10T05:03:20.592Z,10.78
2019-01-10T05:09:57.340Z,7.03
2019-01-10T05:14:01.960Z,6.30
2019-01-10T05:18:08.107Z,6.72
2019-01-10T05:22:12.775Z,7.93
2019-01-10T05:26:17.322Z,8.25
2019-01-10T05:30:23.971Z,9.45
2019-01-10T05:34:28.560Z,6.53
2019-01-10T06:15:32.355Z,9.75
2019-01-10T08:33:36.314Z,11.30
2019-01-10T08:38:17.348Z,11.20
2019-01-10T11:02:33.235Z,8.63
2019-01-10T11:11:07.164Z,8.35
2019-01-10T11:21:20.682Z,10.63
2019-01-10T11:25:29.653Z,11.12
2019-01-10T11:31:18.803Z,10.55
2019-01-10T11:37:58.893Z,10.67
2019-01-10T11:42:03.722Z,10.40
2019-01-10T11:46:08.375Z,10.72
2019-01-10T11:50:13.391Z,11.73
2019-01-10T11:54:17.899Z,10.88
2019-01-10T11:58:22.459Z,10.95
2019-01-10T12:02:36.111Z,10.45
2019-01-10T12:06:34.439Z,9.43
2019-01-10T12:10:38.995Z,8.20
2019-01-10T12:14:43.554Z,11.08
2019-01-10T12:18:48.094Z,9.68
2019-01-10T12:24:54.659Z,13.43
2019-01-10T14:04:35.505Z,10.98
2019-01-10T14:10:42.951Z,7.72
2019-01-10T14:41:51.325Z,10.58
2019-01-10T15:58:20.446Z,11.30
2019-01-10T16:02:24.989Z,12.13
2019-01-10T16:09:08.121Z,9.65
2019-01-10T19:59:12.770Z,15.43
2019-01-10T20:03:17.279Z,12.13
2019-01-10T20:07:21.795Z,16.37
2019-01-10T20:11:26.355Z,17.48
2019-01-10T20:28:05.587Z,14.57
2019-01-10T21:44:44.435Z,14.17
2019-01-10T21:57:53.567Z,13.50
2019-01-10T22:05:14.403Z,16.35
